createdAt,value
2023-03-02T00:01:48.339Z,1.43
2023-03-02T00:04:21.506Z,0.80
2023-03-02T00:06:50.889Z,1.20
2023-03-02T00:09:20.417Z,1.00
2023-03-02T00:11:48.461Z,1.07
2023-03-02T00:14:16.357Z,0.87
2023-03-02T00:16:44.269Z,1.13
2023-03-02T00:19:12.112Z,0.90
2023-03-02T00:21:40.989Z,0.90
2023-03-02T00:24:09.084Z,1.13
2023-03-02T00:26:38.757Z,1.00
2023-03-02T00:29:06.676Z,1.00
2023-03-02T00:31:34.994Z,1.07
2023-03-02T00:34:03.064Z,0.90
2023-03-02T00:36:30.964Z,1.30
2023-03-02T00:38:58.859Z,1.20
2023-03-02T00:41:26.779Z,1.27
2023-03-02T00:43:56.148Z,1.00
2023-03-02T00:46:25.760Z,0.80
2023-03-02T00:48:53.783Z,0.90
2023-03-02T00:51:21.903Z,0.80
2023-03-02T00:53:49.779Z,0.90
2023-03-02T00:56:17.621Z,0.90
2023-03-02T00:58:45.444Z,1.17
2023-03-02T01:01:16.647Z,0.80
2023-03-02T01:03:46.260Z,1.10
2023-03-02T01:06:18.973Z,1.17
2023-03-02T01:08:47.488Z,0.97
2023-03-02T01:11:16.220Z,1.30
2023-03-02T01:13:44.666Z,1.07
2023-03-02T01:16:14.046Z,1.20
2023-03-02T01:18:42.449Z,1.33
2023-03-02T01:21:13.489Z,1.20
2023-03-02T01:23:41.498Z,1.17
2023-03-02T01:26:09.528Z,1.07
2023-03-02T01:28:37.418Z,1.40
2023-03-02T01:31:05.693Z,1.20
2023-03-02T01:33:34.983Z,1.00
2023-03-02T01:36:02.906Z,1.30
2023-03-02T01:38:31.075Z,1.20
2023-03-02T01:40:58.986Z,1.10
2023-03-02T01:43:27.024Z,1.10
2023-03-02T01:45:57.138Z,1.13
2023-03-02T01:48:30.103Z,1.07
2023-03-02T01:51:01.248Z,1.20
2023-03-02T01:53:32.359Z,1.23
2023-03-02T01:56:01.244Z,1.27
2023-03-02T01:58:33.079Z,1.20
2023-03-02T02:01:01.554Z,1.30
2023-03-02T02:03:31.464Z,1.30
2023-03-02T02:06:09.975Z,1.20
2023-03-02T02:08:39.381Z,1.30
2023-03-02T02:11:07.849Z,1.07
2023-03-02T02:13:35.896Z,1.53
2023-03-02T02:16:03.906Z,1.10
2023-03-02T02:18:32.109Z,1.10
2023-03-02T02:21:01.347Z,1.17
2023-03-02T02:23:34.868Z,1.40
2023-03-02T02:26:12.289Z,1.40
2023-03-02T02:28:44.586Z,1.20
2023-03-02T02:31:21.222Z,1.10
2023-03-02T02:33:54.505Z,1.13
2023-03-02T02:36:26.195Z,1.20
2023-03-02T02:38:57.256Z,1.20
2023-03-02T02:41:32.482Z,1.40
2023-03-02T02:44:00.606Z,1.17
2023-03-02T02:46:28.802Z,1.10
2023-03-02T02:48:56.786Z,1.00
2023-03-02T02:51:27.617Z,1.40
2023-03-02T02:53:59.834Z,0.90
2023-03-02T02:56:32.826Z,1.03
2023-03-02T02:59:05.570Z,1.13
2023-03-02T03:01:34.509Z,1.00
2023-03-02T03:04:04.838Z,1.07
2023-03-02T03:06:42.327Z,1.10
2023-03-02T03:09:11.448Z,1.30
2023-03-02T03:11:43.132Z,1.30
2023-03-02T03:14:14.066Z,0.77
2023-03-02T03:16:47.594Z,1.03
2023-03-02T03:19:20.864Z,1.10
2023-03-02T03:21:51.222Z,0.97
2023-03-02T03:24:19.410Z,1.00
2023-03-02T03:26:49.036Z,1.40
2023-03-02T03:29:17.823Z,1.10
2023-03-02T03:31:46.033Z,1.40
2023-03-02T03:34:14.020Z,1.40
2023-03-02T03:36:43.291Z,1.00
2023-03-02T03:39:12.606Z,1.10
2023-03-02T03:41:40.509Z,1.03
2023-03-02T03:44:10.405Z,0.93
2023-03-02T03:46:38.695Z,1.40
2023-03-02T03:49:06.922Z,0.73
2023-03-02T03:51:35.187Z,1.00
2023-03-02T03:54:03.436Z,1.10
2023-03-02T03:56:34.503Z,0.90
2023-03-02T03:59:08.826Z,1.17
2023-03-02T04:20:29.427Z,0.87
2023-03-02T04:22:58.059Z,0.90
2023-03-02T04:25:28.518Z,0.80
2023-03-02T04:27:56.746Z,0.60
2023-03-02T04:30:26.978Z,1.13
2023-03-02T04:32:57.592Z,0.90
2023-03-02T04:35:26.124Z,1.03
2023-03-02T04:37:55.557Z,0.80
2023-03-02T04:40:23.593Z,0.97
2023-03-02T04:42:51.605Z,0.80
2023-03-02T04:45:19.680Z,0.80
2023-03-02T04:47:47.731Z,0.83
2023-03-02T04:50:16.663Z,0.90
2023-03-02T04:52:44.579Z,1.00
2023-03-02T04:55:20.259Z,0.90
2023-03-02T04:57:48.404Z,0.90
2023-03-02T05:00:17.925Z,0.80
2023-03-02T05:02:46.284Z,0.83
2023-03-02T05:05:17.225Z,0.80
2023-03-02T05:07:45.627Z,0.60
2023-03-02T05:10:16.179Z,1.00
2023-03-02T05:12:57.739Z,0.70
2023-03-02T05:15:27.348Z,0.70
2023-03-02T05:17:55.355Z,1.00
2023-03-02T05:20:27.400Z,0.93
2023-03-02T05:22:56.442Z,1.00
2023-03-02T05:25:26.325Z,0.77
2023-03-02T05:27:54.235Z,0.73
2023-03-02T05:30:23.883Z,0.90
2023-03-02T05:32:54.417Z,2.13
2023-03-02T05:35:22.792Z,0.83
2023-03-02T05:37:50.848Z,1.00
2023-03-02T05:40:21.135Z,0.60
2023-03-02T05:42:50.646Z,0.97
2023-03-02T05:45:21.942Z,0.80
2023-03-02T05:47:49.847Z,0.60
2023-03-02T05:50:17.974Z,0.53
2023-03-02T05:52:46.330Z,0.50
2023-03-02T05:55:15.168Z,0.80
2023-03-02T05:57:43.248Z,1.00
2023-03-02T06:00:16.988Z,1.00
2023-03-02T06:02:44.951Z,0.70
2023-03-02T06:05:26.863Z,0.70
2023-03-02T06:07:54.841Z,0.63
2023-03-02T06:10:23.076Z,1.23
2023-03-02T06:12:50.993Z,0.67
2023-03-02T06:15:20.945Z,1.10
2023-03-02T06:17:48.834Z,0.80
2023-03-02T06:20:19.060Z,0.80
2023-03-02T06:22:47.949Z,1.00
2023-03-02T06:25:17.795Z,1.00
2023-03-02T06:27:46.290Z,0.83
2023-03-02T06:30:16.514Z,0.77
2023-03-02T06:32:46.080Z,1.00
2023-03-02T06:35:14.751Z,1.10
2023-03-02T06:37:44.281Z,0.93
2023-03-02T06:40:14.264Z,0.80
2023-03-02T06:42:43.396Z,1.07
2023-03-02T06:45:12.245Z,0.90
2023-03-02T06:47:40.219Z,0.70
2023-03-02T06:50:11.243Z,1.00
2023-03-02T06:52:39.250Z,0.70
2023-03-02T06:55:08.314Z,0.83
2023-03-02T06:57:36.380Z,0.57
2023-03-02T07:00:09.904Z,0.80
2023-03-02T07:02:38.251Z,0.90
2023-03-02T07:05:07.380Z,0.80
2023-03-02T07:07:36.656Z,0.90
2023-03-02T07:10:05.585Z,0.77
2023-03-02T07:12:33.464Z,0.93
2023-03-02T07:15:01.326Z,0.70
2023-03-02T07:17:29.323Z,0.93
2023-03-02T07:19:57.226Z,0.77
2023-03-02T07:22:25.164Z,0.80
2023-03-02T07:24:54.424Z,0.90
2023-03-02T07:27:22.312Z,0.60
2023-03-02T07:29:50.206Z,0.70
2023-03-02T07:32:18.157Z,0.70
2023-03-02T07:34:46.067Z,0.80
2023-03-02T07:37:14.028Z,0.70
2023-03-02T07:39:41.894Z,0.80
2023-03-02T07:42:12.856Z,0.80
2023-03-02T07:44:40.854Z,0.60
2023-03-02T07:47:08.777Z,0.90
2023-03-02T07:49:36.791Z,0.80
2023-03-02T07:52:05.356Z,1.10
2023-03-02T07:54:33.380Z,1.07
2023-03-02T07:57:01.292Z,1.07
2023-03-02T07:59:30.615Z,0.70
2023-03-02T08:01:59.060Z,0.80
2023-03-02T08:04:27.258Z,0.90
2023-03-02T08:06:55.167Z,0.70
2023-03-02T08:09:23.075Z,0.60
2023-03-02T08:11:50.932Z,0.80
2023-03-02T08:14:18.803Z,0.50
2023-03-02T08:16:48.197Z,0.87
2023-03-02T08:19:16.065Z,0.60
2023-03-02T08:21:44.113Z,0.80
2023-03-02T08:24:12.374Z,0.50
2023-03-02T08:26:40.510Z,0.70
2023-03-02T08:29:08.504Z,0.70
2023-03-02T08:31:36.790Z,0.50
2023-03-02T08:34:06.767Z,0.57
2023-03-02T08:36:35.123Z,0.60
2023-03-02T08:39:03.516Z,0.50
2023-03-02T08:41:31.580Z,0.40
2023-03-02T08:43:59.679Z,0.40
2023-03-02T08:46:27.580Z,0.73
2023-03-02T08:48:55.577Z,0.80
2023-03-02T08:51:26.122Z,0.60
2023-03-02T08:53:56.517Z,0.60
2023-03-02T08:56:26.180Z,0.80
2023-03-02T08:58:55.410Z,0.60
2023-03-02T09:01:25.543Z,0.50
2023-03-02T09:03:53.665Z,0.50
2023-03-02T09:06:21.824Z,0.63
2023-03-02T09:08:51.099Z,0.87
2023-03-02T09:11:19.451Z,0.77
2023-03-02T09:13:47.444Z,0.43
2023-03-02T09:16:16.350Z,0.40
2023-03-02T09:18:44.409Z,0.43
2023-03-02T09:21:12.328Z,0.50
2023-03-02T09:23:40.341Z,0.60
2023-03-02T09:26:10.245Z,0.50
2023-03-02T09:29:16.044Z,0.40
2023-03-02T09:31:44.067Z,0.70
2023-03-02T09:34:11.948Z,0.40
2023-03-02T09:36:39.853Z,0.60
2023-03-02T09:39:12.177Z,0.40
2023-03-02T09:42:32.144Z,0.70
2023-03-02T09:45:22.186Z,0.70
2023-03-02T09:47:59.036Z,0.63
2023-03-02T09:50:31.242Z,0.60
2023-03-02T09:53:21.317Z,0.70
2023-03-02T09:55:54.688Z,0.60
2023-03-02T09:58:26.852Z,0.63
2023-03-02T10:00:54.822Z,0.50
2023-03-02T10:03:27.039Z,0.53
2023-03-02T10:05:57.218Z,0.50
2023-03-02T10:08:27.662Z,0.60
2023-03-02T10:11:03.012Z,0.50
2023-03-02T10:13:40.583Z,0.50
2023-03-02T10:16:18.217Z,0.50
2023-03-02T10:18:50.505Z,0.43
2023-03-02T10:21:24.300Z,0.40
2023-03-02T10:23:57.316Z,0.50
2023-03-02T10:26:39.174Z,0.57
2023-03-02T10:29:29.415Z,0.30
2023-03-02T10:32:01.919Z,0.50
2023-03-02T10:34:31.270Z,0.30
2023-03-02T10:36:59.666Z,0.30
2023-03-02T10:39:27.521Z,0.53
2023-03-02T10:42:01.608Z,0.40
2023-03-02T10:44:34.746Z,0.50
2023-03-02T10:47:02.655Z,0.40
2023-03-02T10:49:32.466Z,0.30
2023-03-02T10:52:02.734Z,0.30
2023-03-02T10:54:32.040Z,0.40
2023-03-02T10:57:02.216Z,0.30
2023-03-02T10:59:46.598Z,0.40
2023-03-02T11:02:18.863Z,0.40
2023-03-02T11:04:46.884Z,0.50
2023-03-02T11:07:18.654Z,0.47
2023-03-02T11:09:58.194Z,0.50
2023-03-02T11:12:26.128Z,0.40
2023-03-02T11:15:16.489Z,0.30
2023-03-02T11:17:46.334Z,0.40
2023-03-02T11:20:18.489Z,0.47
2023-03-02T11:22:53.041Z,0.37
2023-03-02T11:25:27.181Z,0.40
2023-03-02T11:28:01.889Z,0.30
2023-03-02T11:30:35.192Z,0.47
2023-03-02T11:33:08.896Z,0.40
2023-03-02T11:35:44.780Z,0.20
2023-03-02T11:38:19.018Z,0.43
2023-03-02T11:40:58.143Z,0.40
2023-03-02T11:43:26.039Z,0.30
2023-03-02T11:46:00.910Z,0.40
2023-03-02T11:48:33.200Z,0.30
2023-03-02T11:51:06.676Z,0.30
2023-03-02T11:53:49.417Z,0.30
2023-03-02T11:56:17.498Z,0.30
2023-03-02T11:58:49.303Z,0.40
2023-03-02T12:01:21.910Z,0.33
2023-03-02T12:03:49.846Z,0.30
2023-03-02T12:06:35.317Z,0.70
2023-03-02T12:09:31.017Z,0.30
2023-03-02T12:12:02.654Z,0.30
2023-03-02T12:14:38.857Z,0.30
2023-03-02T12:17:23.629Z,0.30
2023-03-02T12:19:53.157Z,0.43
2023-03-02T12:22:29.364Z,0.30
2023-03-02T12:25:03.814Z,0.40
2023-03-02T12:27:37.366Z,0.40
2023-03-02T12:30:27.136Z,0.30
2023-03-02T12:33:17.575Z,0.30
2023-03-02T12:35:46.557Z,0.90
2023-03-02T12:38:30.823Z,0.30
2023-03-02T12:41:17.514Z,0.40
2023-03-02T12:43:54.510Z,0.40
2023-03-02T12:46:34.870Z,0.30
2023-03-02T12:49:15.589Z,0.40
2023-03-02T12:51:51.362Z,0.40
2023-03-02T12:54:22.167Z,0.30
2023-03-02T12:56:50.567Z,0.30
2023-03-02T12:59:23.450Z,0.37
2023-03-02T13:01:51.618Z,0.30
2023-03-02T13:04:25.649Z,0.40
2023-03-02T13:06:54.377Z,0.30
2023-03-02T13:09:22.743Z,0.30
2023-03-02T13:11:54.729Z,0.40
2023-03-02T13:14:25.995Z,0.30
2023-03-02T13:16:59.138Z,0.40
2023-03-02T13:19:30.569Z,0.30
2023-03-02T13:21:59.381Z,0.47
2023-03-02T13:24:33.294Z,0.40
2023-03-02T13:27:07.255Z,0.30
2023-03-02T13:29:35.439Z,0.37
2023-03-02T13:32:17.061Z,0.40
2023-03-02T13:34:50.131Z,0.40
2023-03-02T13:37:23.315Z,0.40
2023-03-02T13:40:01.222Z,1.47
2023-03-02T13:42:36.114Z,1.07
2023-03-02T13:45:21.895Z,0.40
2023-03-02T13:47:50.024Z,0.30
2023-03-02T13:50:24.131Z,0.40
2023-03-02T13:52:53.308Z,0.30
2023-03-02T13:55:22.813Z,0.30
2023-03-02T13:57:52.458Z,0.30
2023-03-02T14:00:23.916Z,0.50
2023-03-02T14:02:53.843Z,0.40
2023-03-02T14:05:26.977Z,0.40
2023-03-02T14:07:54.972Z,1.03
2023-03-02T14:10:22.868Z,0.30
2023-03-02T14:12:57.106Z,0.40
2023-03-02T14:15:25.548Z,0.40
2023-03-02T14:17:53.522Z,0.50
2023-03-02T14:20:22.768Z,0.40
2023-03-02T14:22:51.469Z,0.33
2023-03-02T14:25:20.426Z,0.30
2023-03-02T14:27:48.406Z,0.40
2023-03-02T14:30:19.402Z,0.30
2023-03-02T14:32:47.732Z,0.40
2023-03-02T14:35:16.948Z,0.40
2023-03-02T14:37:49.594Z,0.40
2023-03-02T14:40:26.622Z,0.50
2023-03-02T14:42:54.590Z,0.30
2023-03-02T14:45:23.042Z,0.27
2023-03-02T14:47:52.207Z,0.40
2023-03-02T14:50:20.147Z,0.30
2023-03-02T14:52:52.686Z,0.30
2023-03-02T14:55:26.038Z,0.40
2023-03-02T14:57:56.703Z,0.30
2023-03-02T15:00:25.175Z,0.30
2023-03-02T15:02:53.411Z,0.40
2023-03-02T15:05:21.595Z,0.37
2023-03-02T15:07:53.631Z,0.40
2023-03-02T15:10:22.890Z,1.37
2023-03-02T15:12:51.012Z,0.37
2023-03-02T15:15:19.182Z,0.40
2023-03-02T15:17:47.167Z,0.40
2023-03-02T15:20:16.756Z,0.37
2023-03-02T15:22:45.005Z,0.50
2023-03-02T15:25:14.265Z,0.30
2023-03-02T15:27:42.522Z,0.60
2023-03-02T15:30:12.245Z,0.40
2023-03-02T15:32:40.229Z,0.50
2023-03-02T15:35:09.701Z,0.43
2023-03-02T15:37:37.597Z,0.30
2023-03-02T15:40:06.515Z,0.40
2023-03-02T15:42:36.190Z,0.40
2023-03-02T15:45:04.193Z,0.50
2023-03-02T15:47:33.453Z,0.50
2023-03-02T15:50:01.408Z,0.40
2023-03-02T15:52:29.287Z,0.30
2023-03-02T15:54:57.209Z,0.33
2023-03-02T15:57:25.118Z,0.40
2023-03-02T15:59:54.411Z,0.40
2023-03-02T16:02:22.293Z,0.30
2023-03-02T16:04:50.188Z,0.40
2023-03-02T16:07:18.028Z,0.47
2023-03-02T16:09:46.334Z,0.47
2023-03-02T16:12:14.203Z,0.50
2023-03-02T16:14:42.046Z,0.30
2023-03-02T16:17:11.739Z,0.40
2023-03-02T16:19:39.672Z,0.40
2023-03-02T16:22:07.587Z,0.47
2023-03-02T16:24:35.490Z,0.40
2023-03-02T16:27:03.971Z,0.40
2023-03-02T16:29:32.082Z,0.50
2023-03-02T16:32:00.077Z,0.40
2023-03-02T16:34:29.461Z,0.40
2023-03-02T16:36:57.373Z,0.50
2023-03-02T16:39:25.503Z,0.40
2023-03-02T16:41:53.771Z,0.40
2023-03-02T16:44:22.642Z,0.30
2023-03-02T16:46:50.698Z,0.40
2023-03-02T16:49:18.600Z,0.70
2023-03-02T16:51:47.846Z,0.47
2023-03-02T16:54:17.951Z,0.40
2023-03-02T16:56:47.312Z,0.40
2023-03-02T16:59:15.482Z,0.37
2023-03-02T17:01:44.283Z,0.50
2023-03-02T17:04:12.202Z,0.50
2023-03-02T17:06:59.537Z,0.40
2023-03-02T17:09:29.471Z,0.40
2023-03-02T17:11:57.409Z,0.30
2023-03-02T17:14:25.510Z,0.67
2023-03-02T17:16:53.767Z,0.50
2023-03-02T17:19:23.557Z,0.60
2023-03-02T17:21:51.460Z,0.43
2023-03-02T17:24:19.406Z,0.53
2023-03-02T17:26:48.661Z,0.40
2023-03-02T17:29:16.681Z,0.40
2023-03-02T17:31:44.823Z,0.43
2023-03-02T17:34:13.150Z,0.40
2023-03-02T17:36:41.338Z,0.30
2023-03-02T17:39:09.555Z,0.40
2023-03-02T17:41:39.471Z,0.30
2023-03-02T17:44:08.847Z,0.40
2023-03-02T17:46:36.854Z,0.60
2023-03-02T17:49:04.773Z,0.40
2023-03-02T17:51:32.762Z,0.50
2023-03-02T17:54:00.638Z,0.30
2023-03-02T17:56:38.786Z,0.50
2023-03-02T17:59:08.186Z,0.33
2023-03-02T18:01:36.724Z,0.50
2023-03-02T18:04:04.889Z,0.40
2023-03-02T18:06:32.972Z,0.47
2023-03-02T18:09:00.900Z,0.40
2023-03-02T18:11:37.943Z,0.40
2023-03-02T18:14:05.911Z,0.40
2023-03-02T18:16:35.502Z,0.40
2023-03-02T18:19:03.924Z,0.33
2023-03-02T18:21:32.518Z,1.60
2023-03-02T18:24:01.716Z,0.57
2023-03-02T18:26:30.229Z,0.40
2023-03-02T18:28:58.102Z,0.43
2023-03-02T18:31:26.286Z,0.53
2023-03-02T18:33:55.589Z,0.50
2023-03-02T18:36:23.494Z,0.50
2023-03-02T18:38:52.915Z,0.43
2023-03-02T18:41:21.625Z,0.40
2023-03-02T18:43:50.095Z,0.40
2023-03-02T18:46:20.656Z,0.50
2023-03-02T18:48:49.420Z,0.50
2023-03-02T18:51:19.518Z,0.40
2023-03-02T18:53:48.658Z,0.43
2023-03-02T18:56:17.070Z,0.50
2023-03-02T18:58:45.355Z,0.50
2023-03-02T19:05:01.295Z,0.40
2023-03-02T19:07:30.500Z,0.30
2023-03-02T19:09:58.650Z,0.50
2023-03-02T19:12:26.761Z,0.47
2023-03-02T19:14:55.603Z,0.50
2023-03-02T19:17:24.336Z,0.50
2023-03-02T19:19:52.628Z,0.37
2023-03-02T19:22:20.713Z,0.50
2023-03-02T19:24:49.924Z,0.60
2023-03-02T19:27:18.222Z,0.40
2023-03-02T19:29:46.272Z,0.37
2023-03-02T19:32:15.100Z,0.40
2023-03-02T19:34:44.253Z,0.50
2023-03-02T19:37:12.375Z,0.53
2023-03-02T19:39:40.434Z,0.40
2023-03-02T19:42:09.850Z,0.40
2023-03-02T19:44:38.152Z,0.53
2023-03-02T19:47:06.262Z,0.40
2023-03-02T19:49:34.361Z,0.30
2023-03-02T19:52:02.485Z,0.47
2023-03-02T19:54:30.495Z,0.37
2023-03-02T19:56:58.427Z,0.40
2023-03-02T19:59:29.281Z,0.47
2023-03-02T20:01:59.354Z,0.40
2023-03-02T20:04:27.756Z,0.50
2023-03-02T20:06:55.638Z,0.60
2023-03-02T20:09:24.240Z,0.40
2023-03-02T20:11:52.203Z,0.43
2023-03-02T20:14:32.847Z,0.60
2023-03-02T20:17:02.901Z,0.40
2023-03-02T20:19:30.844Z,0.43
2023-03-02T20:21:58.854Z,0.50
2023-03-02T20:24:26.946Z,0.50
2023-03-02T20:26:54.884Z,0.40
2023-03-02T20:29:22.806Z,0.40
2023-03-02T20:31:50.982Z,0.60
2023-03-02T20:34:20.279Z,0.30
2023-03-02T20:36:48.317Z,0.43
2023-03-02T20:39:21.509Z,0.40
2023-03-02T20:41:50.034Z,0.30
2023-03-02T20:44:18.169Z,0.40
2023-03-02T20:46:55.147Z,0.30
2023-03-02T20:49:26.811Z,0.50
2023-03-02T20:51:55.807Z,0.50
2023-03-02T20:54:26.872Z,0.40
2023-03-02T20:56:55.247Z,0.40
2023-03-02T20:59:24.144Z,0.53
2023-03-02T21:01:52.275Z,0.50
2023-03-02T21:04:20.758Z,0.50
2023-03-02T21:06:50.721Z,0.30
2023-03-02T21:09:18.857Z,0.40
2023-03-02T21:11:47.248Z,0.33
2023-03-02T21:14:15.923Z,0.37
2023-03-02T21:16:45.050Z,0.50
2023-03-02T21:19:17.095Z,0.27
2023-03-02T21:21:45.773Z,0.50
2023-03-02T21:24:17.629Z,0.40
2023-03-02T21:26:46.409Z,0.30
2023-03-02T21:29:14.999Z,0.43
2023-03-02T21:31:43.741Z,0.37
2023-03-02T21:34:11.772Z,0.40
2023-03-02T21:36:39.820Z,0.40
2023-03-02T21:39:09.276Z,0.50
2023-03-02T21:41:39.542Z,0.30
2023-03-02T21:44:07.951Z,0.30
2023-03-02T21:46:37.406Z,0.40
2023-03-02T21:49:05.725Z,0.30
2023-03-02T21:51:33.697Z,0.40
2023-03-02T21:54:01.574Z,0.37
2023-03-02T21:56:29.628Z,0.40
2023-03-02T21:58:58.907Z,0.47
2023-03-02T22:01:27.370Z,0.43
2023-03-02T22:03:55.505Z,0.40
2023-03-02T22:06:25.235Z,0.40
2023-03-02T22:08:53.686Z,0.50
2023-03-02T22:11:23.793Z,0.30
2023-03-02T22:13:53.547Z,0.53
2023-03-02T22:16:24.349Z,0.40
2023-03-02T22:18:56.323Z,0.47
2023-03-02T22:21:30.038Z,0.30
2023-03-02T22:24:19.443Z,0.40
2023-03-02T22:26:50.542Z,0.50
2023-03-02T22:29:23.856Z,0.57
2023-03-02T22:31:54.956Z,0.40
2023-03-02T22:34:25.567Z,0.40
2023-03-02T22:36:57.817Z,0.40
2023-03-02T22:39:30.084Z,0.30
2023-03-02T22:42:06.207Z,0.30
2023-03-02T22:44:34.366Z,0.40
2023-03-02T22:47:07.345Z,0.40
2023-03-02T22:49:35.693Z,0.60
2023-03-02T22:52:12.177Z,0.40
2023-03-02T22:54:40.103Z,0.50
2023-03-02T22:57:29.738Z,0.20
2023-03-02T23:00:19.039Z,0.50
2023-03-02T23:02:48.328Z,0.43
2023-03-02T23:05:26.985Z,0.50
2023-03-02T23:08:01.533Z,0.30
2023-03-02T23:10:29.489Z,0.40
2023-03-02T23:12:57.449Z,0.30
2023-03-02T23:15:25.308Z,0.40
2023-03-02T23:17:56.123Z,0.40
2023-03-02T23:20:24.264Z,0.40
2023-03-02T23:22:52.247Z,0.50
2023-03-02T23:25:20.102Z,0.40
2023-03-02T23:27:48.009Z,0.50
2023-03-02T23:30:20.552Z,0.40
2023-03-02T23:32:48.459Z,0.53
2023-03-02T23:35:17.931Z,0.50
2023-03-02T23:37:45.801Z,0.33
2023-03-02T23:40:14.078Z,0.37
2023-03-02T23:42:42.050Z,0.40
2023-03-02T23:45:11.161Z,0.50
2023-03-02T23:47:39.086Z,0.30
2023-03-02T23:50:08.706Z,0.50
2023-03-02T23:52:38.005Z,0.30
2023-03-02T23:55:06.618Z,0.37
2023-03-02T23:57:34.540Z,0.40
